North Central West Virginia Airport Clarksburg US
ICAO: KCKB
IATA: CKB
Category: Medium
Scheduled Services: Yes

Elevation: 1217 ft
TransAlt. 18000 ft.

Airport Communications:
CLARKSBURG APP/DEP:119.6
ATIS:127.825
CTAF:126.7
GND:121.9
ARNG OPS:139.05
ELKINS RDO:112.6
CLARKSBURG TWR:126.7
UNICOM:123

KCKB Zoom In..

If you have problems with the map follow the link
https://www.worldairports.se/pages/airport.php?
ICAO=KCKB

Runways:

(A) RW 03 length 7800 ft width 150 ft
---- / hdg 31

(B) RW 21 length 7800 ft width 150 ft
ILS 109.30 / hdg 211

Location; KCKB
Day. 17 / Time. 21.53 Zulu
* Altimeter: 30.63
* Temperature: 00° c. 32°f.
* Wind from: 030° Speed 03 kn.
Dewpoint: -11° c.
Visibility: 10 Statute Miles.
Clouds: Clear (automated report).

KCKB 172153Z 03003KT 10SM CLR 00/M11 A3063 RMK AO2 SLP381 T00001106


Wind From 030°
Speed 03 kn.

 
 
jpsmedia worldairports.se 2020   terms of use